createdAt,value
2023-04-15T00:01:06.257Z,6.83
2023-04-15T00:03:34.472Z,6.80
2023-04-15T00:06:01.604Z,6.77
2023-04-15T00:08:28.069Z,6.78
2023-04-15T00:10:54.659Z,6.75
2023-04-15T00:13:20.977Z,6.78
2023-04-15T00:15:47.903Z,6.77
2023-04-15T00:18:14.257Z,6.76
2023-04-15T00:20:40.597Z,6.75
2023-04-15T00:23:07.960Z,6.71
2023-04-15T00:25:34.293Z,6.71
2023-04-15T00:28:00.574Z,6.66
2023-04-15T00:30:26.951Z,6.60
2023-04-15T00:32:53.443Z,6.64
2023-04-15T00:35:19.816Z,6.54
2023-04-15T00:37:48.506Z,6.54
2023-04-15T00:40:18.675Z,6.54
2023-04-15T00:42:45.447Z,6.45
2023-04-15T00:45:11.916Z,6.45
2023-04-15T00:47:41.449Z,6.42
2023-04-15T00:50:08.779Z,6.39
2023-04-15T00:52:35.093Z,6.35
2023-04-15T00:55:02.245Z,6.35
2023-04-15T00:57:29.124Z,6.29
2023-04-15T00:59:56.718Z,6.33
2023-04-15T01:02:24.115Z,6.34
2023-04-15T01:04:50.731Z,6.25
2023-04-15T01:07:17.303Z,6.23
2023-04-15T01:09:43.758Z,6.23
2023-04-15T01:12:14.094Z,6.23
2023-04-15T01:14:40.428Z,6.21
2023-04-15T01:17:07.359Z,6.16
2023-04-15T01:19:33.765Z,6.13
2023-04-15T01:22:00.180Z,6.11
2023-04-15T01:24:28.150Z,6.04
2023-04-15T01:26:54.532Z,6.04
2023-04-15T01:29:20.925Z,6.08
2023-04-15T01:31:54.880Z,6.07
2023-04-15T01:34:21.586Z,5.96
2023-04-15T01:36:47.905Z,6.01
2023-04-15T01:39:14.737Z,5.99
2023-04-15T01:41:42.303Z,5.99
2023-04-15T01:44:08.811Z,6.00
2023-04-15T01:46:35.741Z,5.97
2023-04-15T01:49:02.375Z,5.94
2023-04-15T01:51:28.917Z,5.85
2023-04-15T01:53:56.995Z,5.85
2023-04-15T01:56:26.439Z,5.87
2023-04-15T01:58:53.228Z,5.86
2023-04-15T02:01:19.901Z,5.87
2023-04-15T02:03:46.967Z,5.84
2023-04-15T02:06:13.459Z,5.78
2023-04-15T02:08:39.749Z,5.72
2023-04-15T02:11:06.032Z,5.63
2023-04-15T02:13:32.291Z,5.57
2023-04-15T02:15:59.238Z,5.46
2023-04-15T02:18:25.626Z,5.41
2023-04-15T02:20:52.473Z,5.24
2023-04-15T02:23:18.783Z,5.29
2023-04-15T02:25:53.480Z,5.31
2023-04-15T02:28:21.005Z,5.34
2023-04-15T02:30:52.499Z,5.39
2023-04-15T02:33:19.161Z,5.42
2023-04-15T02:35:45.724Z,5.45
2023-04-15T02:38:12.445Z,5.44
2023-04-15T02:40:38.898Z,5.40
2023-04-15T02:43:06.936Z,5.41
2023-04-15T02:45:33.484Z,5.36
2023-04-15T02:48:01.407Z,5.39
2023-04-15T02:50:27.799Z,5.37
2023-04-15T02:52:54.077Z,5.37
2023-04-15T02:55:20.482Z,5.39
2023-04-15T02:57:46.772Z,5.42
2023-04-15T03:00:14.054Z,5.42
2023-04-15T03:02:42.077Z,5.45
2023-04-15T03:05:12.584Z,5.45
2023-04-15T03:07:40.271Z,5.36
2023-04-15T03:10:07.890Z,5.43
2023-04-15T03:12:34.194Z,5.39
2023-04-15T03:15:02.027Z,5.34
2023-04-15T03:17:28.356Z,5.26
2023-04-15T03:19:54.697Z,5.21
2023-04-15T03:22:21.249Z,5.23
2023-04-15T03:24:47.587Z,5.24
2023-04-15T03:27:13.938Z,5.24
2023-04-15T03:29:40.457Z,5.20
2023-04-15T03:32:06.922Z,5.14
2023-04-15T03:34:33.182Z,5.12
2023-04-15T03:36:59.523Z,5.07
2023-04-15T03:39:25.796Z,5.07
2023-04-15T03:41:52.070Z,5.05
2023-04-15T03:44:18.330Z,5.03
2023-04-15T03:46:44.665Z,4.99
2023-04-15T03:49:11.103Z,4.93
2023-04-15T03:51:37.382Z,4.93
2023-04-15T03:54:03.638Z,4.93
2023-04-15T03:56:29.924Z,4.95
2023-04-15T03:58:56.183Z,4.94
2023-04-15T04:01:22.943Z,4.93
2023-04-15T04:03:49.318Z,4.92
2023-04-15T04:06:16.780Z,4.88
2023-04-15T04:08:43.437Z,4.88
2023-04-15T04:11:09.735Z,4.82
2023-04-15T04:13:36.048Z,4.78
2023-04-15T04:16:04.657Z,4.75
2023-04-15T04:18:34.152Z,4.72
2023-04-15T04:21:01.015Z,4.75
2023-04-15T04:23:27.364Z,4.79
2023-04-15T04:25:53.710Z,4.80
2023-04-15T04:28:19.953Z,4.76
2023-04-15T04:30:46.279Z,4.78
2023-04-15T04:33:12.822Z,4.76
2023-04-15T04:35:39.124Z,4.74
2023-04-15T04:38:05.389Z,4.78
2023-04-15T04:40:31.720Z,4.74
2023-04-15T04:42:58.095Z,4.78
2023-04-15T04:45:24.361Z,4.78
2023-04-15T04:47:50.685Z,4.76
2023-04-15T04:50:17.132Z,4.76
2023-04-15T04:52:43.435Z,4.80
2023-04-15T04:55:09.714Z,4.80
2023-04-15T04:57:36.407Z,4.83
2023-04-15T05:00:04.797Z,4.87
2023-04-15T05:02:32.371Z,4.84
2023-04-15T05:04:58.792Z,4.85
2023-04-15T05:07:25.083Z,4.86
2023-04-15T05:09:51.438Z,4.80
2023-04-15T05:12:18.231Z,4.81
2023-04-15T05:14:44.526Z,4.83
2023-04-15T05:17:11.458Z,4.85
2023-04-15T05:19:37.835Z,4.86
2023-04-15T05:22:05.149Z,4.81
2023-04-15T05:24:31.512Z,4.82
2023-04-15T05:26:57.839Z,4.86
2023-04-15T05:29:24.157Z,4.90
2023-04-15T05:31:50.680Z,4.89
2023-04-15T05:34:37.515Z,4.95
2023-04-15T05:37:03.801Z,4.95
2023-04-15T05:39:30.819Z,4.96
2023-04-15T05:41:57.644Z,4.96
2023-04-15T05:44:23.990Z,4.96
2023-04-15T05:46:50.256Z,4.98
2023-04-15T05:49:18.841Z,5.02
2023-04-15T05:51:45.660Z,5.08
2023-04-15T05:54:11.930Z,5.12
2023-04-15T05:56:38.200Z,5.17
2023-04-15T05:59:04.504Z,5.22
2023-04-15T06:01:31.017Z,5.30
2023-04-15T06:03:57.546Z,5.35
2023-04-15T06:06:24.208Z,5.37
2023-04-15T06:08:50.801Z,5.44
2023-04-15T06:11:17.168Z,5.47
2023-04-15T06:13:43.426Z,5.49
2023-04-15T06:16:09.783Z,5.56
2023-04-15T06:18:36.112Z,5.64
2023-04-15T06:21:02.457Z,5.75
2023-04-15T06:23:28.832Z,5.85
2023-04-15T06:25:55.101Z,5.95
2023-04-15T06:28:21.493Z,6.08
2023-04-15T06:30:47.779Z,6.23
2023-04-15T06:33:14.074Z,6.38
2023-04-15T06:35:40.501Z,6.54
2023-04-15T06:38:07.031Z,6.66
2023-04-15T06:40:33.556Z,6.79
2023-04-15T06:42:59.836Z,6.92
2023-04-15T06:45:26.533Z,7.06
2023-04-15T06:47:52.987Z,7.24
2023-04-15T06:50:19.293Z,7.41
2023-04-15T06:52:46.033Z,7.50
2023-04-15T06:55:12.564Z,7.69
2023-04-15T06:57:38.854Z,7.85
2023-04-15T07:00:05.735Z,8.05
2023-04-15T07:02:32.230Z,8.23
2023-04-15T07:04:58.598Z,8.39
2023-04-15T07:07:25.578Z,8.50
2023-04-15T07:09:53.627Z,8.53
2023-04-15T07:12:20.296Z,8.65
2023-04-15T07:14:46.574Z,8.74
2023-04-15T07:17:13.218Z,8.93
2023-04-15T07:19:39.625Z,9.14
2023-04-15T07:22:05.946Z,9.34
2023-04-15T07:24:32.251Z,9.57
2023-04-15T07:27:00.811Z,9.82
2023-04-15T07:29:27.679Z,10.11
2023-04-15T07:31:53.963Z,10.37
2023-04-15T07:34:20.868Z,11.03
2023-04-15T07:36:50.478Z,12.09
2023-04-15T07:39:16.772Z,13.19
2023-04-15T07:41:43.416Z,14.28
2023-04-15T07:44:09.904Z,15.22
2023-04-15T07:46:37.224Z,15.88
2023-04-15T07:49:04.112Z,16.49
2023-04-15T07:51:30.690Z,17.02
2023-04-15T07:53:56.963Z,17.04
2023-04-15T07:56:23.267Z,16.86
2023-04-15T07:58:49.512Z,16.81
2023-04-15T08:01:15.995Z,16.84
2023-04-15T08:03:43.095Z,16.64
2023-04-15T08:06:09.512Z,16.50
2023-04-15T08:08:35.771Z,16.69
2023-04-15T08:11:02.096Z,17.06
2023-04-15T08:13:28.463Z,17.36
2023-04-15T08:16:13.760Z,18.16
2023-04-15T08:18:40.074Z,18.30
2023-04-15T08:21:06.503Z,18.01
2023-04-15T08:23:33.474Z,17.23
2023-04-15T08:25:59.792Z,16.40
2023-04-15T08:28:26.180Z,15.74
2023-04-15T08:30:55.516Z,15.32
2023-04-15T08:33:21.871Z,14.99
2023-04-15T08:35:49.198Z,14.66
2023-04-15T08:38:15.540Z,14.31
2023-04-15T08:40:44.330Z,14.15
2023-04-15T08:43:15.678Z,14.41
2023-04-15T08:45:43.626Z,14.53
2023-04-15T08:48:14.691Z,14.83
2023-04-15T08:50:40.979Z,14.97
2023-04-15T08:53:07.570Z,14.98
2023-04-15T08:55:36.214Z,14.81
2023-04-15T08:58:03.067Z,14.67
2023-04-15T09:00:29.547Z,14.31
2023-04-15T09:02:56.898Z,14.04
2023-04-15T09:05:23.268Z,13.64
2023-04-15T09:07:51.287Z,13.55
2023-04-15T09:10:17.876Z,13.48
2023-04-15T09:12:44.241Z,13.48
2023-04-15T09:15:13.573Z,13.59
2023-04-15T09:17:44.149Z,13.81
2023-04-15T09:20:13.451Z,14.27
2023-04-15T09:22:41.034Z,14.59
2023-04-15T09:25:29.359Z,14.82
2023-04-15T09:27:58.153Z,14.98
2023-04-15T09:30:24.819Z,15.12
2023-04-15T09:33:02.270Z,15.32
2023-04-15T09:35:28.881Z,15.23
2023-04-15T09:38:06.202Z,15.00
2023-04-15T09:40:39.606Z,14.92
2023-04-15T09:43:07.364Z,14.93
2023-04-15T09:45:35.793Z,15.09
2023-04-15T09:48:18.019Z,15.03
2023-04-15T09:50:44.694Z,14.88
2023-04-15T09:53:13.868Z,14.73
2023-04-15T09:55:40.928Z,14.68
2023-04-15T09:58:17.958Z,14.63
2023-04-15T10:00:44.392Z,14.54
2023-04-15T10:03:11.617Z,14.37
2023-04-15T10:05:39.238Z,14.34
2023-04-15T10:08:05.887Z,14.42
2023-04-15T10:10:33.222Z,14.42
2023-04-15T10:12:59.678Z,14.24
2023-04-15T10:15:28.056Z,14.08
2023-04-15T10:17:56.431Z,14.05
2023-04-15T10:20:23.910Z,13.97
2023-04-15T10:22:51.356Z,13.86
2023-04-15T10:25:18.457Z,13.72
2023-04-15T10:27:45.157Z,13.64
2023-04-15T10:30:12.097Z,13.70
2023-04-15T10:32:39.207Z,13.80
2023-04-15T10:35:07.083Z,13.81
2023-04-15T10:37:38.075Z,13.99
2023-04-15T10:40:33.109Z,13.91
2023-04-15T10:43:01.487Z,13.86
2023-04-15T10:45:32.607Z,13.88
2023-04-15T10:48:03.632Z,13.88
2023-04-15T10:50:33.893Z,13.88
2023-04-15T10:53:03.796Z,13.78
2023-04-15T10:55:34.402Z,13.73
2023-04-15T10:58:02.277Z,13.68
2023-04-15T11:00:30.590Z,13.68
2023-04-15T11:03:07.111Z,13.69
2023-04-15T11:05:39.269Z,13.67
2023-04-15T11:08:05.571Z,13.68
2023-04-15T11:10:31.795Z,13.70
2023-04-15T11:12:59.211Z,13.60
2023-04-15T11:15:31.894Z,13.45
2023-04-15T11:17:59.675Z,13.48
2023-04-15T11:20:26.960Z,13.60
2023-04-15T11:23:14.375Z,13.78
2023-04-15T11:25:40.924Z,13.94
2023-04-15T11:28:09.830Z,14.12
2023-04-15T11:30:37.785Z,14.38
2023-04-15T11:33:09.160Z,14.61
2023-04-15T11:35:36.097Z,14.82
2023-04-15T11:38:11.060Z,14.96
2023-04-15T11:40:37.969Z,15.18
2023-04-15T11:43:08.256Z,15.30
2023-04-15T11:45:35.491Z,15.38
2023-04-15T11:48:06.805Z,15.55
2023-04-15T11:50:34.053Z,15.54
2023-04-15T11:53:03.187Z,15.39
2023-04-15T11:55:30.284Z,15.15
2023-04-15T11:58:18.430Z,14.96
2023-04-15T12:00:47.947Z,14.82
2023-04-15T12:03:31.259Z,14.70
2023-04-15T12:06:19.949Z,14.53
2023-04-15T12:08:55.426Z,14.36
2023-04-15T12:11:27.548Z,14.30
2023-04-15T12:13:56.750Z,14.30
2023-04-15T12:16:24.944Z,14.30
2023-04-15T12:18:53.306Z,14.24
2023-04-15T12:21:20.963Z,14.27
2023-04-15T12:23:57.151Z,14.27
2023-04-15T12:26:51.728Z,14.04
2023-04-15T12:29:18.317Z,13.96
2023-04-15T12:31:52.098Z,13.87
2023-04-15T12:34:26.124Z,14.01
2023-04-15T12:36:52.396Z,14.04
2023-04-15T12:39:22.566Z,14.01
2023-04-15T12:41:48.844Z,13.94
2023-04-15T12:44:15.105Z,13.85
2023-04-15T12:46:41.491Z,13.75
2023-04-15T12:49:09.186Z,13.59
2023-04-15T12:51:35.484Z,13.47
2023-04-15T12:54:01.826Z,13.34
2023-04-15T12:56:28.160Z,13.23
2023-04-15T12:58:54.429Z,13.12
2023-04-15T13:01:20.853Z,12.91
2023-04-15T13:03:48.109Z,12.80
2023-04-15T13:06:14.444Z,12.62
2023-04-15T13:08:47.992Z,12.55
2023-04-15T13:11:22.624Z,12.49
2023-04-15T13:13:49.003Z,12.48
2023-04-15T13:16:15.646Z,12.49
2023-04-15T13:18:41.945Z,12.49
2023-04-15T13:21:08.335Z,12.48
2023-04-15T13:23:34.681Z,12.34
2023-04-15T13:26:00.957Z,12.26
2023-04-15T13:28:27.225Z,12.24
2023-04-15T13:30:53.665Z,12.30
2023-04-15T13:33:20.089Z,12.25
2023-04-15T13:35:46.497Z,12.11
2023-04-15T13:38:12.831Z,12.06
2023-04-15T13:40:39.207Z,12.00
2023-04-15T13:43:05.674Z,11.95
2023-04-15T13:45:32.036Z,11.88
2023-04-15T13:47:58.416Z,11.86
2023-04-15T13:50:24.939Z,11.74
2023-04-15T13:52:51.310Z,11.71
2023-04-15T13:55:20.239Z,11.77
2023-04-15T13:57:47.685Z,11.68
2023-04-15T14:00:14.848Z,11.74
2023-04-15T14:02:42.447Z,11.67
2023-04-15T14:05:09.312Z,11.64
2023-04-15T14:07:35.825Z,11.67
2023-04-15T14:10:02.163Z,11.63
2023-04-15T14:12:28.501Z,11.57
2023-04-15T14:14:54.992Z,11.62
2023-04-15T14:17:21.536Z,11.68
2023-04-15T14:19:47.930Z,11.67
2023-04-15T14:22:14.222Z,11.71
2023-04-15T14:24:48.935Z,11.68
2023-04-15T14:27:16.349Z,11.54
2023-04-15T14:29:42.874Z,11.58
2023-04-15T14:32:12.157Z,11.47
2023-04-15T14:34:39.364Z,11.43
2023-04-15T14:37:05.828Z,11.35
2023-04-15T14:39:32.329Z,11.29
2023-04-15T14:41:58.825Z,11.25
2023-04-15T14:44:25.539Z,11.20
2023-04-15T14:46:52.091Z,11.15
2023-04-15T14:49:18.423Z,11.07
2023-04-15T14:51:44.719Z,11.09
2023-04-15T14:54:11.017Z,11.05
2023-04-15T14:56:37.314Z,10.96
2023-04-15T14:59:03.780Z,10.88
2023-04-15T15:01:30.348Z,10.89
2023-04-15T15:03:56.742Z,10.89
2023-04-15T15:06:23.205Z,10.91
2023-04-15T15:08:49.713Z,10.89
2023-04-15T15:11:16.915Z,10.94
2023-04-15T15:13:43.192Z,10.99
2023-04-15T15:16:10.267Z,10.96
2023-04-15T15:18:37.320Z,10.91
2023-04-15T15:21:03.747Z,10.90
2023-04-15T15:23:30.074Z,10.87
2023-04-15T15:25:57.376Z,10.88
2023-04-15T15:28:23.667Z,10.73
2023-04-15T15:30:49.995Z,10.70
2023-04-15T15:33:16.337Z,10.65
2023-04-15T15:35:42.681Z,10.68
2023-04-15T15:38:11.540Z,10.74
2023-04-15T15:40:37.914Z,10.71
2023-04-15T15:43:04.556Z,10.65
2023-04-15T15:45:31.106Z,10.60
2023-04-15T15:47:58.326Z,10.58
2023-04-15T15:50:25.066Z,10.58
2023-04-15T15:52:51.441Z,10.61
2023-04-15T15:55:17.966Z,10.59
2023-04-15T15:57:44.478Z,10.49
2023-04-15T16:00:12.680Z,10.38
2023-04-15T16:03:05.092Z,10.31
2023-04-15T16:05:26.204Z,10.30
2023-04-15T16:07:52.621Z,10.39
2023-04-15T16:10:19.077Z,10.37
2023-04-15T16:12:45.621Z,10.40
2023-04-15T16:15:12.513Z,10.43
2023-04-15T16:17:38.980Z,10.36
2023-04-15T16:20:06.324Z,10.32
2023-04-15T16:22:34.220Z,10.34
2023-04-15T16:25:00.936Z,10.34
2023-04-15T16:27:27.326Z,10.29
2023-04-15T16:29:53.970Z,10.14
2023-04-15T16:32:20.449Z,10.15
2023-04-15T16:34:47.429Z,10.11
2023-04-15T16:37:13.745Z,10.10
2023-04-15T16:39:40.627Z,10.07
2023-04-15T16:42:07.342Z,10.08
2023-04-15T16:44:33.887Z,9.97
2023-04-15T16:47:02.194Z,10.08
2023-04-15T16:49:29.776Z,10.03
2023-04-15T16:51:56.100Z,10.11
2023-04-15T16:54:22.427Z,10.08
2023-04-15T16:56:48.730Z,10.08
2023-04-15T16:59:15.022Z,10.00
2023-04-15T17:01:41.516Z,10.00
2023-04-15T17:04:08.122Z,9.98
2023-04-15T17:06:34.530Z,9.89
2023-04-15T17:09:00.805Z,9.93
2023-04-15T17:11:28.194Z,9.91
2023-04-15T17:13:54.592Z,9.94
2023-04-15T17:16:21.181Z,9.91
2023-04-15T17:18:47.626Z,9.94
2023-04-15T17:21:15.213Z,9.92
2023-04-15T17:23:41.532Z,9.90
2023-04-15T17:26:08.198Z,9.90
2023-04-15T17:28:34.515Z,9.85
2023-04-15T17:31:01.205Z,9.81
2023-04-15T17:34:00.208Z,9.74
2023-04-15T17:36:13.791Z,9.75
2023-04-15T17:38:40.220Z,9.68
2023-04-15T17:41:07.792Z,9.62
2023-04-15T17:43:34.137Z,9.65
2023-04-15T17:46:00.516Z,9.70
2023-04-15T17:48:27.153Z,9.69
2023-04-15T17:50:53.561Z,9.70
2023-04-15T17:53:19.898Z,9.69
2023-04-15T17:55:46.385Z,9.68
2023-04-15T17:58:12.749Z,9.68
2023-04-15T18:00:39.078Z,9.69
2023-04-15T18:03:05.604Z,9.68
2023-04-15T18:05:32.083Z,9.61
2023-04-15T18:07:58.416Z,9.60
2023-04-15T18:10:24.766Z,9.62
2023-04-15T18:12:51.061Z,9.64
2023-04-15T18:15:25.578Z,9.67
2023-04-15T18:17:52.097Z,9.65
2023-04-15T18:20:18.896Z,9.61
2023-04-15T18:22:45.230Z,9.59
2023-04-15T18:25:11.542Z,9.65
2023-04-15T18:27:40.789Z,9.64
2023-04-15T18:30:08.834Z,9.61
2023-04-15T18:32:35.444Z,9.58
2023-04-15T18:35:02.073Z,9.52
2023-04-15T18:37:31.631Z,9.55
2023-04-15T18:39:58.815Z,9.54
2023-04-15T18:42:25.804Z,9.48
2023-04-15T18:44:52.953Z,9.47
2023-04-15T18:47:19.474Z,9.42
2023-04-15T18:49:46.020Z,9.44
2023-04-15T18:52:12.572Z,9.39
2023-04-15T18:54:38.921Z,9.51
2023-04-15T18:57:06.414Z,9.50
2023-04-15T18:59:33.630Z,9.52
2023-04-15T19:02:00.355Z,9.58
2023-04-15T19:04:28.868Z,9.50
2023-04-15T19:06:55.945Z,9.46
2023-04-15T19:09:22.342Z,9.48
2023-04-15T19:11:48.828Z,9.49
2023-04-15T19:14:15.114Z,9.43
2023-04-15T19:16:41.469Z,9.50
2023-04-15T19:19:07.938Z,9.49
2023-04-15T19:21:37.630Z,9.48
2023-04-15T19:24:04.015Z,9.47
2023-04-15T19:26:30.385Z,9.50
2023-04-15T19:28:58.804Z,9.42
2023-04-15T19:31:26.179Z,9.40
2023-04-15T19:33:52.757Z,9.40
2023-04-15T19:36:19.153Z,9.40
2023-04-15T19:38:45.621Z,9.38
2023-04-15T19:41:11.964Z,9.38
2023-04-15T19:43:38.370Z,9.40
2023-04-15T19:46:04.762Z,9.40
2023-04-15T19:48:31.078Z,9.41
2023-04-15T19:50:57.551Z,9.40
2023-04-15T19:53:25.491Z,9.42
2023-04-15T19:55:51.814Z,9.41
2023-04-15T19:58:18.112Z,9.39
2023-04-15T20:00:44.426Z,9.40
2023-04-15T20:03:10.892Z,9.41
2023-04-15T20:05:37.354Z,9.40
2023-04-15T20:08:03.725Z,9.43
2023-04-15T20:10:31.574Z,9.41
2023-04-15T20:12:57.962Z,9.42
2023-04-15T20:15:24.371Z,9.44
2023-04-15T20:17:50.953Z,9.46
2023-04-15T20:20:17.343Z,9.46
2023-04-15T20:22:43.678Z,9.43
2023-04-15T20:25:10.082Z,9.49
2023-04-15T20:27:36.381Z,9.46
2023-04-15T20:30:04.757Z,9.53
2023-04-15T20:32:35.854Z,9.54
2023-04-15T20:35:04.182Z,9.55
2023-04-15T20:37:32.966Z,9.51
2023-04-15T20:40:00.630Z,9.55
2023-04-15T20:42:26.928Z,9.50
2023-04-15T20:44:53.285Z,9.51
2023-04-15T20:47:19.658Z,9.48
2023-04-15T20:49:47.281Z,9.46
2023-04-15T20:52:13.688Z,9.44
2023-04-15T20:54:39.986Z,9.48
2023-04-15T20:57:06.275Z,9.52
2023-04-15T20:59:34.538Z,9.50
2023-04-15T21:02:00.980Z,9.53
2023-04-15T21:04:27.540Z,9.51
2023-04-15T21:06:53.969Z,9.47
2023-04-15T21:09:20.316Z,9.41
2023-04-15T21:14:18.906Z,9.41
2023-04-15T21:16:45.536Z,9.43
2023-04-15T21:19:12.022Z,9.43
2023-04-15T21:21:38.391Z,9.48
2023-04-15T21:24:06.753Z,9.51
2023-04-15T21:26:33.426Z,9.52
2023-04-15T21:28:59.693Z,9.53
2023-04-15T21:31:26.192Z,9.55
2023-04-15T21:33:52.687Z,9.50
2023-04-15T21:36:19.141Z,9.52
2023-04-15T21:38:45.492Z,9.44
2023-04-15T21:41:11.778Z,9.50
2023-04-15T21:43:38.174Z,9.44
2023-04-15T21:46:23.647Z,9.40
2023-04-15T21:48:51.450Z,9.44
2023-04-15T21:51:17.676Z,9.48
2023-04-15T21:53:44.218Z,9.46
2023-04-15T21:56:10.837Z,9.46
2023-04-15T21:58:37.229Z,9.46
2023-04-15T22:01:04.716Z,9.49
2023-04-15T22:03:34.899Z,9.51
2023-04-15T22:06:02.329Z,9.47
2023-04-15T22:08:28.836Z,9.52
2023-04-15T22:10:55.549Z,9.50
2023-04-15T22:13:21.892Z,9.46
2023-04-15T22:15:48.201Z,9.44
2023-04-15T22:18:14.603Z,9.47
2023-04-15T22:20:40.995Z,9.47
2023-04-15T22:23:10.288Z,9.47
2023-04-15T22:25:37.278Z,9.52
2023-04-15T22:28:06.833Z,9.46
2023-04-15T22:30:40.093Z,9.48
2023-04-15T22:33:07.693Z,9.45
2023-04-15T22:35:36.101Z,9.46
2023-04-15T22:38:03.583Z,9.43
2023-04-15T22:40:30.194Z,9.42
2023-04-15T22:42:56.522Z,9.36
2023-04-15T22:45:22.831Z,9.38
2023-04-15T22:47:49.105Z,9.39
2023-04-15T22:50:15.423Z,9.36
2023-04-15T22:52:43.256Z,9.38
2023-04-15T22:55:09.784Z,9.37
2023-04-15T22:57:36.102Z,9.29
2023-04-15T23:00:02.794Z,9.32
2023-04-15T23:02:29.209Z,9.32
2023-04-15T23:04:55.958Z,9.36
2023-04-15T23:07:22.381Z,9.35
2023-04-15T23:09:48.667Z,9.37
2023-04-15T23:12:15.140Z,9.36
2023-04-15T23:14:41.443Z,9.36
2023-04-15T23:17:07.768Z,9.37
2023-04-15T23:19:34.100Z,9.37
2023-04-15T23:22:00.840Z,9.35
2023-04-15T23:24:27.204Z,9.36
2023-04-15T23:26:53.497Z,9.37
2023-04-15T23:29:19.789Z,9.37
2023-04-15T23:31:46.165Z,9.35
2023-04-15T23:34:12.505Z,9.39
2023-04-15T23:36:38.854Z,9.41
2023-04-15T23:39:05.279Z,9.41
2023-04-15T23:41:31.564Z,9.41
2023-04-15T23:43:57.819Z,9.42
2023-04-15T23:46:24.174Z,9.43
2023-04-15T23:48:50.588Z,9.39
2023-04-15T23:51:16.948Z,9.43
2023-04-15T23:53:43.326Z,9.46
2023-04-15T23:56:09.753Z,9.41
2023-04-15T23:58:36.418Z,9.41
